sensor_id;sensor_type;location;lat;lon;timestamp;temperature;humidity
51619;DHT22;38518;53.164;5.430;2023-04-06T00:01:55;2.70;1.00
51619;DHT22;38518;53.164;5.430;2023-04-06T00:04:21;2.50;1.00
51619;DHT22;38518;53.164;5.430;2023-04-06T00:06:47;2.50;1.00
51619;DHT22;38518;53.164;5.430;2023-04-06T00:09:13;2.50;1.00
51619;DHT22;38518;53.164;5.430;2023-04-06T00:11:38;2.50;1.00
51619;DHT22;38518;53.164;5.430;2023-04-06T00:14:04;2.50;1.00
51619;DHT22;38518;53.164;5.430;2023-04-06T00:16:30;2.60;1.00
51619;DHT22;38518;53.164;5.430;2023-04-06T00:18:56;2.60;1.00
51619;DHT22;38518;53.164;5.430;2023-04-06T00:21:22;3.60;1.00
51619;DHT22;38518;53.164;5.430;2023-04-06T00:23:47;1.40;1.00
51619;DHT22;38518;53.164;5.430;2023-04-06T00:26:13;2.70;1.00
51619;DHT22;38518;53.164;5.430;2023-04-06T00:28:39;2.40;1.00
51619;DHT22;38518;53.164;5.430;2023-04-06T00:31:05;2.40;1.00
51619;DHT22;38518;53.164;5.430;2023-04-06T00:33:30;2.40;1.00
51619;DHT22;38518;53.164;5.430;2023-04-06T00:35:56;2.40;1.00
51619;DHT22;38518;53.164;5.430;2023-04-06T00:38:22;2.30;1.00
51619;DHT22;38518;53.164;5.430;2023-04-06T00:40:48;2.20;1.00
51619;DHT22;38518;53.164;5.430;2023-04-06T00:43:14;3.00;1.00
51619;DHT22;38518;53.164;5.430;2023-04-06T00:45:41;2.20;1.00
51619;DHT22;38518;53.164;5.430;2023-04-06T00:48:07;2.30;1.00
51619;DHT22;38518;53.164;5.430;2023-04-06T00:50:33;2.40;1.00
51619;DHT22;38518;53.164;5.430;2023-04-06T00:53:00;2.30;1.00
51619;DHT22;38518;53.164;5.430;2023-04-06T00:55:29;2.40;1.00
51619;DHT22;38518;53.164;5.430;2023-04-06T00:57:59;2.20;1.00
51619;DHT22;38518;53.164;5.430;2023-04-06T01:00:26;3.20;1.00
51619;DHT22;38518;53.164;5.430;2023-04-06T01:02:52;2.10;1.00
51619;DHT22;38518;53.164;5.430;2023-04-06T01:05:18;2.10;1.00
51619;DHT22;38518;53.164;5.430;2023-04-06T01:07:45;2.20;1.00
51619;DHT22;38518;53.164;5.430;2023-04-06T01:10:10;2.20;1.00
51619;DHT22;38518;53.164;5.430;2023-04-06T01:12:36;2.00;1.00
51619;DHT22;38518;53.164;5.430;2023-04-06T01:15:05;3.20;1.00
51619;DHT22;38518;53.164;5.430;2023-04-06T01:17:31;2.00;1.00
51619;DHT22;38518;53.164;5.430;2023-04-06T01:19:57;2.60;1.00
51619;DHT22;38518;53.164;5.430;2023-04-06T01:22:24;0.90;1.00
51619;DHT22;38518;53.164;5.430;2023-04-06T01:24:50;2.00;1.00
51619;DHT22;38518;53.164;5.430;2023-04-06T01:27:16;2.00;1.00
51619;DHT22;38518;53.164;5.430;2023-04-06T01:29:42;2.10;1.00
51619;DHT22;38518;53.164;5.430;2023-04-06T01:32:08;2.00;1.00
51619;DHT22;38518;53.164;5.430;2023-04-06T01:34:34;2.00;1.00
51619;DHT22;38518;53.164;5.430;2023-04-06T01:37:00;1.90;1.00
51619;DHT22;38518;53.164;5.430;2023-04-06T01:39:26;1.90;1.00
51619;DHT22;38518;53.164;5.430;2023-04-06T01:41:51;2.40;1.00
51619;DHT22;38518;53.164;5.430;2023-04-06T01:44:18;3.00;1.00
51619;DHT22;38518;53.164;5.430;2023-04-06T01:46:44;1.80;1.00
51619;DHT22;38518;53.164;5.430;2023-04-06T01:49:11;2.30;1.00
51619;DHT22;38518;53.164;5.430;2023-04-06T01:54:04;1.70;1.00
51619;DHT22;38518;53.164;5.430;2023-04-06T01:56:29;1.70;1.00
51619;DHT22;38518;53.164;5.430;2023-04-06T01:58:55;1.70;1.00
51619;DHT22;38518;53.164;5.430;2023-04-06T02:01:21;1.70;1.00
51619;DHT22;38518;53.164;5.430;2023-04-06T02:03:47;1.60;1.00
51619;DHT22;38518;53.164;5.430;2023-04-06T02:06:13;1.90;1.00
51619;DHT22;38518;53.164;5.430;2023-04-06T02:08:39;1.50;1.00
51619;DHT22;38518;53.164;5.430;2023-04-06T02:11:05;2.50;1.00
51619;DHT22;38518;53.164;5.430;2023-04-06T02:13:30;1.90;1.00
51619;DHT22;38518;53.164;5.430;2023-04-06T02:15:56;1.70;1.00
51619;DHT22;38518;53.164;5.430;2023-04-06T02:18:22;1.70;1.00
51619;DHT22;38518;53.164;5.430;2023-04-06T02:20:48;2.50;1.00
51619;DHT22;38518;53.164;5.430;2023-04-06T02:23:14;1.60;1.00
51619;DHT22;38518;53.164;5.430;2023-04-06T02:25:40;1.50;1.00
51619;DHT22;38518;53.164;5.430;2023-04-06T02:28:06;1.50;1.00
51619;DHT22;38518;53.164;5.430;2023-04-06T02:30:32;1.70;1.00
51619;DHT22;38518;53.164;5.430;2023-04-06T02:33:00;1.90;1.00
51619;DHT22;38518;53.164;5.430;2023-04-06T02:35:28;2.60;1.00
51619;DHT22;38518;53.164;5.430;2023-04-06T02:37:54;2.90;1.00
51619;DHT22;38518;53.164;5.430;2023-04-06T02:40:20;2.20;1.00
51619;DHT22;38518;53.164;5.430;2023-04-06T02:42:46;2.20;1.00
51619;DHT22;38518;53.164;5.430;2023-04-06T02:45:12;2.30;1.00
51619;DHT22;38518;53.164;5.430;2023-04-06T02:47:38;1.60;1.00
51619;DHT22;38518;53.164;5.430;2023-04-06T02:50:04;1.60;1.00
51619;DHT22;38518;53.164;5.430;2023-04-06T02:52:32;2.30;1.00
51619;DHT22;38518;53.164;5.430;2023-04-06T02:54:58;1.70;1.00
51619;DHT22;38518;53.164;5.430;2023-04-06T02:57:24;2.80;1.00
51619;DHT22;38518;53.164;5.430;2023-04-06T02:59:49;1.70;1.00
51619;DHT22;38518;53.164;5.430;2023-04-06T03:02:15;2.70;1.00
51619;DHT22;38518;53.164;5.430;2023-04-06T03:04:42;0.80;1.00
51619;DHT22;38518;53.164;5.430;2023-04-06T03:07:08;1.50;1.00
51619;DHT22;38518;53.164;5.430;2023-04-06T03:09:36;1.50;1.00
51619;DHT22;38518;53.164;5.430;2023-04-06T03:12:01;2.20;1.00
51619;DHT22;38518;53.164;5.430;2023-04-06T03:14:27;1.50;1.00
51619;DHT22;38518;53.164;5.430;2023-04-06T03:16:53;1.60;1.00
51619;DHT22;38518;53.164;5.430;2023-04-06T03:19:19;1.50;1.00
51619;DHT22;38518;53.164;5.430;2023-04-06T03:21:45;1.40;1.00
51619;DHT22;38518;53.164;5.430;2023-04-06T03:24:11;1.60;1.00
51619;DHT22;38518;53.164;5.430;2023-04-06T03:26:38;2.40;1.00
51619;DHT22;38518;53.164;5.430;2023-04-06T03:29:04;1.50;1.00
51619;DHT22;38518;53.164;5.430;2023-04-06T03:31:29;1.70;1.00
51619;DHT22;38518;53.164;5.430;2023-04-06T03:33:55;1.90;1.00
51619;DHT22;38518;53.164;5.430;2023-04-06T03:36:21;1.80;1.00
51619;DHT22;38518;53.164;5.430;2023-04-06T03:38:47;1.50;1.00
51619;DHT22;38518;53.164;5.430;2023-04-06T03:41:13;1.70;1.00
51619;DHT22;38518;53.164;5.430;2023-04-06T03:43:38;1.60;1.00
51619;DHT22;38518;53.164;5.430;2023-04-06T03:46:04;2.70;1.00
51619;DHT22;38518;53.164;5.430;2023-04-06T03:48:30;2.20;1.00
51619;DHT22;38518;53.164;5.430;2023-04-06T03:51:01;2.70;1.00
51619;DHT22;38518;53.164;5.430;2023-04-06T03:53:27;1.60;1.00
51619;DHT22;38518;53.164;5.430;2023-04-06T03:55:53;2.50;1.00
51619;DHT22;38518;53.164;5.430;2023-04-06T03:58:19;1.80;1.00
51619;DHT22;38518;53.164;5.430;2023-04-06T04:00:44;2.20;1.00
51619;DHT22;38518;53.164;5.430;2023-04-06T04:03:10;2.80;1.00
51619;DHT22;38518;53.164;5.430;2023-04-06T04:05:36;1.80;1.00
51619;DHT22;38518;53.164;5.430;2023-04-06T04:08:02;1.80;1.00
51619;DHT22;38518;53.164;5.430;2023-04-06T04:10:28;1.70;1.00
51619;DHT22;38518;53.164;5.430;2023-04-06T04:12:54;1.90;1.00
51619;DHT22;38518;53.164;5.430;2023-04-06T04:15:19;1.90;1.00
51619;DHT22;38518;53.164;5.430;2023-04-06T04:17:45;1.90;1.00
51619;DHT22;38518;53.164;5.430;2023-04-06T04:20:15;2.80;1.00
51619;DHT22;38518;53.164;5.430;2023-04-06T04:22:42;1.70;1.00
51619;DHT22;38518;53.164;5.430;2023-04-06T04:25:08;1.70;1.00
51619;DHT22;38518;53.164;5.430;2023-04-06T04:27:34;1.70;1.00
51619;DHT22;38518;53.164;5.430;2023-04-06T04:30:00;2.30;1.00
51619;DHT22;38518;53.164;5.430;2023-04-06T04:32:26;2.80;1.00
51619;DHT22;38518;53.164;5.430;2023-04-06T04:34:53;2.20;1.00
51619;DHT22;38518;53.164;5.430;2023-04-06T04:37:19;1.90;1.00
51619;DHT22;38518;53.164;5.430;2023-04-06T04:39:45;3.00;1.00
51619;DHT22;38518;53.164;5.430;2023-04-06T04:42:11;2.10;1.00
51619;DHT22;38518;53.164;5.430;2023-04-06T04:44:36;2.50;1.00
51619;DHT22;38518;53.164;5.430;2023-04-06T04:47:02;2.00;1.00
51619;DHT22;38518;53.164;5.430;2023-04-06T04:49:28;1.70;1.00
51619;DHT22;38518;53.164;5.430;2023-04-06T04:51:54;2.00;1.00
51619;DHT22;38518;53.164;5.430;2023-04-06T04:54:20;1.80;1.00
51619;DHT22;38518;53.164;5.430;2023-04-06T04:56:46;2.60;1.00
51619;DHT22;38518;53.164;5.430;2023-04-06T04:59:11;1.80;1.00
51619;DHT22;38518;53.164;5.430;2023-04-06T05:01:37;1.80;1.00
51619;DHT22;38518;53.164;5.430;2023-04-06T05:04:03;2.40;1.00
51619;DHT22;38518;53.164;5.430;2023-04-06T05:08:55;1.80;1.00
51619;DHT22;38518;53.164;5.430;2023-04-06T05:11:21;3.10;1.00
51619;DHT22;38518;53.164;5.430;2023-04-06T05:13:47;2.10;1.00
51619;DHT22;38518;53.164;5.430;2023-04-06T05:16:13;2.00;1.00
51619;DHT22;38518;53.164;5.430;2023-04-06T05:18:39;2.90;1.00
51619;DHT22;38518;53.164;5.430;2023-04-06T05:21:05;1.90;1.00
51619;DHT22;38518;53.164;5.430;2023-04-06T05:23:31;1.90;1.00
51619;DHT22;38518;53.164;5.430;2023-04-06T05:25:56;2.00;1.00
51619;DHT22;38518;53.164;5.430;2023-04-06T05:28:22;1.80;1.00
51619;DHT22;38518;53.164;5.430;2023-04-06T05:30:48;2.00;1.00
51619;DHT22;38518;53.164;5.430;2023-04-06T05:33:14;2.60;1.00
51619;DHT22;38518;53.164;5.430;2023-04-06T05:35:40;1.90;1.00
51619;DHT22;38518;53.164;5.430;2023-04-06T05:38:08;2.00;1.00
51619;DHT22;38518;53.164;5.430;2023-04-06T05:40:35;2.00;1.00
51619;DHT22;38518;53.164;5.430;2023-04-06T05:43:08;2.10;1.00
51619;DHT22;38518;53.164;5.430;2023-04-06T05:45:33;2.20;1.00
51619;DHT22;38518;53.164;5.430;2023-04-06T05:48:01;2.30;1.00
51619;DHT22;38518;53.164;5.430;2023-04-06T05:50:27;2.60;1.00
51619;DHT22;38518;53.164;5.430;2023-04-06T05:55:25;2.70;1.00
51619;DHT22;38518;53.164;5.430;2023-04-06T05:57:51;2.90;1.00
51619;DHT22;38518;53.164;5.430;2023-04-06T06:00:17;2.80;1.00
51619;DHT22;38518;53.164;5.430;2023-04-06T06:02:43;3.20;1.00
51619;DHT22;38518;53.164;5.430;2023-04-06T06:05:09;2.40;1.00
51619;DHT22;38518;53.164;5.430;2023-04-06T06:07:36;3.20;1.00
51619;DHT22;38518;53.164;5.430;2023-04-06T06:10:05;3.20;1.00
51619;DHT22;38518;53.164;5.430;2023-04-06T06:12:31;3.30;1.00
51619;DHT22;38518;53.164;5.430;2023-04-06T06:14:57;3.60;1.00
51619;DHT22;38518;53.164;5.430;2023-04-06T06:17:23;3.00;1.00
51619;DHT22;38518;53.164;5.430;2023-04-06T06:19:51;4.10;1.00
51619;DHT22;38518;53.164;5.430;2023-04-06T06:22:17;4.90;1.00
51619;DHT22;38518;53.164;5.430;2023-04-06T06:24:43;5.20;1.00
51619;DHT22;38518;53.164;5.430;2023-04-06T06:27:17;5.70;1.00
51619;DHT22;38518;53.164;5.430;2023-04-06T06:29:43;5.50;1.00
51619;DHT22;38518;53.164;5.430;2023-04-06T06:32:22;5.70;1.00
51619;DHT22;38518;53.164;5.430;2023-04-06T06:34:49;5.80;1.00
51619;DHT22;38518;53.164;5.430;2023-04-06T06:37:17;5.80;1.00
51619;DHT22;38518;53.164;5.430;2023-04-06T06:39:46;5.80;1.00
51619;DHT22;38518;53.164;5.430;2023-04-06T06:42:14;5.80;1.00
51619;DHT22;38518;53.164;5.430;2023-04-06T06:44:40;6.10;1.00
51619;DHT22;38518;53.164;5.430;2023-04-06T06:47:06;5.90;1.00
51619;DHT22;38518;53.164;5.430;2023-04-06T06:49:32;5.90;1.00
51619;DHT22;38518;53.164;5.430;2023-04-06T06:51:57;6.00;1.00
51619;DHT22;38518;53.164;5.430;2023-04-06T06:54:23;6.40;1.00
51619;DHT22;38518;53.164;5.430;2023-04-06T06:56:49;6.60;1.00
51619;DHT22;38518;53.164;5.430;2023-04-06T06:59:17;6.80;1.00
51619;DHT22;38518;53.164;5.430;2023-04-06T07:01:46;6.80;1.00
51619;DHT22;38518;53.164;5.430;2023-04-06T07:04:19;7.00;1.00
51619;DHT22;38518;53.164;5.430;2023-04-06T07:06:45;6.30;1.00
51619;DHT22;38518;53.164;5.430;2023-04-06T07:09:14;7.50;1.00
51619;DHT22;38518;53.164;5.430;2023-04-06T07:11:59;8.00;1.00
51619;DHT22;38518;53.164;5.430;2023-04-06T07:14:27;7.80;1.00
51619;DHT22;38518;53.164;5.430;2023-04-06T07:16:53;8.40;1.00
51619;DHT22;38518;53.164;5.430;2023-04-06T07:19:19;8.80;1.00
51619;DHT22;38518;53.164;5.430;2023-04-06T07:21:51;9.00;1.00
51619;DHT22;38518;53.164;5.430;2023-04-06T07:24:19;7.90;1.00
51619;DHT22;38518;53.164;5.430;2023-04-06T07:26:53;8.90;1.00
51619;DHT22;38518;53.164;5.430;2023-04-06T07:29:19;8.60;1.00
51619;DHT22;38518;53.164;5.430;2023-04-06T07:31:54;8.40;1.00
51619;DHT22;38518;53.164;5.430;2023-04-06T07:34:54;8.20;1.00
51619;DHT22;38518;53.164;5.430;2023-04-06T07:37:40;8.20;1.00
51619;DHT22;38518;53.164;5.430;2023-04-06T07:43:21;8.00;1.00
51619;DHT22;38518;53.164;5.430;2023-04-06T07:45:50;8.20;1.00
51619;DHT22;38518;53.164;5.430;2023-04-06T07:48:26;8.00;1.00
51619;DHT22;38518;53.164;5.430;2023-04-06T07:51:02;8.00;1.00
51619;DHT22;38518;53.164;5.430;2023-04-06T07:53:28;8.10;1.00
51619;DHT22;38518;53.164;5.430;2023-04-06T07:55:54;8.10;1.00
51619;DHT22;38518;53.164;5.430;2023-04-06T07:58:24;8.30;1.00
51619;DHT22;38518;53.164;5.430;2023-04-06T08:00:54;8.40;1.00
51619;DHT22;38518;53.164;5.430;2023-04-06T08:03:20;8.20;1.00
51619;DHT22;38518;53.164;5.430;2023-04-06T08:05:51;8.30;1.00
51619;DHT22;38518;53.164;5.430;2023-04-06T08:08:23;8.40;1.00
51619;DHT22;38518;53.164;5.430;2023-04-06T08:11:12;8.60;1.00
51619;DHT22;38518;53.164;5.430;2023-04-06T08:14:01;8.80;1.00
51619;DHT22;38518;53.164;5.430;2023-04-06T08:16:37;10.20;1.00
51619;DHT22;38518;53.164;5.430;2023-04-06T08:19:03;8.80;1.00
51619;DHT22;38518;53.164;5.430;2023-04-06T08:21:29;8.60;1.00
51619;DHT22;38518;53.164;5.430;2023-04-06T08:23:58;8.60;1.00
51619;DHT22;38518;53.164;5.430;2023-04-06T08:26:26;8.70;1.00
51619;DHT22;38518;53.164;5.430;2023-04-06T08:28:57;8.90;1.00
51619;DHT22;38518;53.164;5.430;2023-04-06T08:31:23;9.30;1.00
51619;DHT22;38518;53.164;5.430;2023-04-06T08:33:49;8.60;1.00
51619;DHT22;38518;53.164;5.430;2023-04-06T08:36:15;8.60;1.00
51619;DHT22;38518;53.164;5.430;2023-04-06T08:38:49;8.50;1.00
51619;DHT22;38518;53.164;5.430;2023-04-06T08:41:27;8.60;1.00
51619;DHT22;38518;53.164;5.430;2023-04-06T08:44:00;8.60;1.00
51619;DHT22;38518;53.164;5.430;2023-04-06T08:46:28;8.60;1.00
51619;DHT22;38518;53.164;5.430;2023-04-06T08:49:01;8.40;1.00
51619;DHT22;38518;53.164;5.430;2023-04-06T08:51:28;7.40;1.00
51619;DHT22;38518;53.164;5.430;2023-04-06T08:53:56;8.30;1.00
51619;DHT22;38518;53.164;5.430;2023-04-06T08:56:27;8.40;1.00
51619;DHT22;38518;53.164;5.430;2023-04-06T08:58:54;8.40;1.00
51619;DHT22;38518;53.164;5.430;2023-04-06T09:01:22;8.70;1.00
51619;DHT22;38518;53.164;5.430;2023-04-06T09:03:49;8.60;1.00
51619;DHT22;38518;53.164;5.430;2023-04-06T09:06:16;8.70;1.00
51619;DHT22;38518;53.164;5.430;2023-04-06T09:08:42;8.80;1.00
51619;DHT22;38518;53.164;5.430;2023-04-06T09:11:08;8.80;1.00
51619;DHT22;38518;53.164;5.430;2023-04-06T09:13:47;8.80;1.00
51619;DHT22;38518;53.164;5.430;2023-04-06T09:16:14;8.90;1.00
51619;DHT22;38518;53.164;5.430;2023-04-06T09:18:39;8.90;1.00
51619;DHT22;38518;53.164;5.430;2023-04-06T09:21:06;9.00;1.00
51619;DHT22;38518;53.164;5.430;2023-04-06T09:31:25;9.10;1.00
51619;DHT22;38518;53.164;5.430;2023-04-06T09:33:51;9.20;1.00
51619;DHT22;38518;53.164;5.430;2023-04-06T09:36:18;9.30;1.00
51619;DHT22;38518;53.164;5.430;2023-04-06T09:38:56;9.40;1.00
51619;DHT22;38518;53.164;5.430;2023-04-06T09:41:36;9.60;1.00
51619;DHT22;38518;53.164;5.430;2023-04-06T09:44:09;9.70;1.00
51619;DHT22;38518;53.164;5.430;2023-04-06T09:46:37;9.80;1.00
51619;DHT22;38518;53.164;5.430;2023-04-06T09:49:05;9.90;1.00
51619;DHT22;38518;53.164;5.430;2023-04-06T09:51:37;9.40;1.00
51619;DHT22;38518;53.164;5.430;2023-04-06T09:54:04;10.00;1.00
51619;DHT22;38518;53.164;5.430;2023-04-06T09:56:45;10.10;1.00
51619;DHT22;38518;53.164;5.430;2023-04-06T09:59:43;10.20;1.00
51619;DHT22;38518;53.164;5.430;2023-04-06T10:02:05;10.20;1.00
51619;DHT22;38518;53.164;5.430;2023-04-06T10:04:43;10.30;1.00
51619;DHT22;38518;53.164;5.430;2023-04-06T10:07:12;10.50;1.00
51619;DHT22;38518;53.164;5.430;2023-04-06T10:09:38;10.60;1.00
51619;DHT22;38518;53.164;5.430;2023-04-06T10:12:05;10.60;1.00
51619;DHT22;38518;53.164;5.430;2023-04-06T10:14:34;10.70;1.00
51619;DHT22;38518;53.164;5.430;2023-04-06T10:17:08;10.90;1.00
51619;DHT22;38518;53.164;5.430;2023-04-06T10:23:03;11.20;1.00
51619;DHT22;38518;53.164;5.430;2023-04-06T10:25:39;10.90;1.00
51619;DHT22;38518;53.164;5.430;2023-04-06T10:28:08;11.50;1.00
51619;DHT22;38518;53.164;5.430;2023-04-06T10:30:41;10.90;1.00
51619;DHT22;38518;53.164;5.430;2023-04-06T10:33:20;10.90;1.00
51619;DHT22;38518;53.164;5.430;2023-04-06T10:35:49;10.90;1.00
51619;DHT22;38518;53.164;5.430;2023-04-06T10:38:18;11.10;1.00
51619;DHT22;38518;53.164;5.430;2023-04-06T10:40:47;11.10;1.00
51619;DHT22;38518;53.164;5.430;2023-04-06T10:43:20;11.30;1.00
51619;DHT22;38518;53.164;5.430;2023-04-06T10:45:57;11.20;1.00
51619;DHT22;38518;53.164;5.430;2023-04-06T10:48:25;11.30;1.00
51619;DHT22;38518;53.164;5.430;2023-04-06T10:51:01;11.30;1.00
51619;DHT22;38518;53.164;5.430;2023-04-06T10:53:27;11.20;1.00
51619;DHT22;38518;53.164;5.430;2023-04-06T10:56:08;11.30;1.00
51619;DHT22;38518;53.164;5.430;2023-04-06T10:58:38;11.40;1.00
51619;DHT22;38518;53.164;5.430;2023-04-06T11:01:04;11.30;1.00
51619;DHT22;38518;53.164;5.430;2023-04-06T11:03:31;10.40;1.00
51619;DHT22;38518;53.164;5.430;2023-04-06T11:05:59;11.20;1.00
51619;DHT22;38518;53.164;5.430;2023-04-06T11:08:27;11.10;1.00
51619;DHT22;38518;53.164;5.430;2023-04-06T11:11:10;11.10;1.00
51619;DHT22;38518;53.164;5.430;2023-04-06T11:16:16;11.30;1.00
51619;DHT22;38518;53.164;5.430;2023-04-06T11:18:58;11.40;1.00
51619;DHT22;38518;53.164;5.430;2023-04-06T11:21:43;11.30;1.00
51619;DHT22;38518;53.164;5.430;2023-04-06T11:24:17;11.30;1.00
51619;DHT22;38518;53.164;5.430;2023-04-06T11:26:48;11.40;1.00
51619;DHT22;38518;53.164;5.430;2023-04-06T11:29:27;10.70;1.00
51619;DHT22;38518;53.164;5.430;2023-04-06T11:32:01;11.40;1.00
51619;DHT22;38518;53.164;5.430;2023-04-06T11:34:29;11.40;1.00
51619;DHT22;38518;53.164;5.430;2023-04-06T11:37:00;11.40;1.00
51619;DHT22;38518;53.164;5.430;2023-04-06T11:39:29;11.40;1.00
51619;DHT22;38518;53.164;5.430;2023-04-06T11:42:00;11.70;1.00
51619;DHT22;38518;53.164;5.430;2023-04-06T11:44:39;11.40;1.00
51619;DHT22;38518;53.164;5.430;2023-04-06T11:47:10;11.40;1.00
51619;DHT22;38518;53.164;5.430;2023-04-06T11:49:42;11.30;1.00
51619;DHT22;38518;53.164;5.430;2023-04-06T11:52:26;11.20;1.00
51619;DHT22;38518;53.164;5.430;2023-04-06T11:54:53;11.10;1.00
51619;DHT22;38518;53.164;5.430;2023-04-06T11:57:21;11.00;1.00
51619;DHT22;38518;53.164;5.430;2023-04-06T11:59:51;10.80;1.00
51619;DHT22;38518;53.164;5.430;2023-04-06T12:02:17;10.60;1.00
51619;DHT22;38518;53.164;5.430;2023-04-06T12:04:43;10.40;1.00
51619;DHT22;38518;53.164;5.430;2023-04-06T12:07:10;9.40;1.00
51619;DHT22;38518;53.164;5.430;2023-04-06T12:09:35;10.20;1.00
51619;DHT22;38518;53.164;5.430;2023-04-06T12:12:02;10.10;1.00
51619;DHT22;38518;53.164;5.430;2023-04-06T12:14:29;10.00;1.00
51619;DHT22;38518;53.164;5.430;2023-04-06T12:16:57;9.90;1.00
51619;DHT22;38518;53.164;5.430;2023-04-06T12:19:23;10.00;1.00
51619;DHT22;38518;53.164;5.430;2023-04-06T12:21:54;10.00;1.00
51619;DHT22;38518;53.164;5.430;2023-04-06T12:24:21;9.80;1.00
51619;DHT22;38518;53.164;5.430;2023-04-06T12:26:47;9.80;1.00
51619;DHT22;38518;53.164;5.430;2023-04-06T12:29:12;9.70;1.00
51619;DHT22;38518;53.164;5.430;2023-04-06T12:31:39;9.70;1.00
51619;DHT22;38518;53.164;5.430;2023-04-06T12:34:07;9.70;1.00
51619;DHT22;38518;53.164;5.430;2023-04-06T12:36:33;9.70;1.00
51619;DHT22;38518;53.164;5.430;2023-04-06T12:38:59;9.70;1.00
51619;DHT22;38518;53.164;5.430;2023-04-06T12:41:27;9.60;1.00
51619;DHT22;38518;53.164;5.430;2023-04-06T12:43:56;9.50;1.00
51619;DHT22;38518;53.164;5.430;2023-04-06T12:46:22;9.40;1.00
51619;DHT22;38518;53.164;5.430;2023-04-06T12:48:48;9.30;1.00
51619;DHT22;38518;53.164;5.430;2023-04-06T12:51:14;9.20;1.00
51619;DHT22;38518;53.164;5.430;2023-04-06T12:53:41;8.20;1.00
51619;DHT22;38518;53.164;5.430;2023-04-06T12:56:15;9.20;1.00
51619;DHT22;38518;53.164;5.430;2023-04-06T12:58:41;8.90;1.00
51619;DHT22;38518;53.164;5.430;2023-04-06T13:01:07;8.90;1.00
51619;DHT22;38518;53.164;5.430;2023-04-06T13:03:36;8.90;4.20
51619;DHT22;38518;53.164;5.430;2023-04-06T13:06:02;8.90;14.90
51619;DHT22;38518;53.164;5.430;2023-04-06T13:08:28;8.80;26.70
51619;DHT22;38518;53.164;5.430;2023-04-06T13:10:57;8.70;29.60
51619;DHT22;38518;53.164;5.430;2023-04-06T13:13:27;8.60;25.80
51619;DHT22;38518;53.164;5.430;2023-04-06T13:15:55;8.60;43.30
51619;DHT22;38518;53.164;5.430;2023-04-06T13:18:28;8.50;55.70
51619;DHT22;38518;53.164;5.430;2023-04-06T13:20:55;8.60;49.70
51619;DHT22;38518;53.164;5.430;2023-04-06T13:23:24;8.30;82.50
51619;DHT22;38518;53.164;5.430;2023-04-06T13:26:00;8.30;93.40
51619;DHT22;38518;53.164;5.430;2023-04-06T13:28:29;8.30;97.50
51619;DHT22;38518;53.164;5.430;2023-04-06T13:30:55;7.30;98.40
51619;DHT22;38518;53.164;5.430;2023-04-06T13:33:28;8.50;99.90
51619;DHT22;38518;53.164;5.430;2023-04-06T13:36:01;7.50;99.90
51619;DHT22;38518;53.164;5.430;2023-04-06T13:38:27;8.20;99.90
51619;DHT22;38518;53.164;5.430;2023-04-06T13:40:54;8.20;99.90
51619;DHT22;38518;53.164;5.430;2023-04-06T13:43:20;8.10;99.90
51619;DHT22;38518;53.164;5.430;2023-04-06T13:45:53;8.30;99.90
51619;DHT22;38518;53.164;5.430;2023-04-06T13:48:20;8.10;99.90
51619;DHT22;38518;53.164;5.430;2023-04-06T13:50:49;8.20;99.90
51619;DHT22;38518;53.164;5.430;2023-04-06T13:53:18;8.20;99.90
51619;DHT22;38518;53.164;5.430;2023-04-06T13:55:47;8.20;99.90
51619;DHT22;38518;53.164;5.430;2023-04-06T13:58:17;8.00;99.90
51619;DHT22;38518;53.164;5.430;2023-04-06T14:00:43;8.00;99.90
51619;DHT22;38518;53.164;5.430;2023-04-06T14:03:08;8.00;99.90
51619;DHT22;38518;53.164;5.430;2023-04-06T14:05:34;8.00;99.90
51619;DHT22;38518;53.164;5.430;2023-04-06T14:08:01;8.00;99.90
51619;DHT22;38518;53.164;5.430;2023-04-06T14:10:27;8.00;99.90
51619;DHT22;38518;53.164;5.430;2023-04-06T14:12:53;8.00;99.90
51619;DHT22;38518;53.164;5.430;2023-04-06T14:15:18;8.00;99.90
51619;DHT22;38518;53.164;5.430;2023-04-06T14:17:44;8.00;99.90
51619;DHT22;38518;53.164;5.430;2023-04-06T14:20:10;7.90;99.90
51619;DHT22;38518;53.164;5.430;2023-04-06T14:22:40;7.90;99.90
51619;DHT22;38518;53.164;5.430;2023-04-06T14:25:07;7.80;99.90
51619;DHT22;38518;53.164;5.430;2023-04-06T14:27:33;7.80;99.90
51619;DHT22;38518;53.164;5.430;2023-04-06T14:29:58;7.80;99.90
51619;DHT22;38518;53.164;5.430;2023-04-06T14:32:25;7.80;99.90
51619;DHT22;38518;53.164;5.430;2023-04-06T14:34:51;7.80;99.90
51619;DHT22;38518;53.164;5.430;2023-04-06T14:37:16;7.80;99.90
51619;DHT22;38518;53.164;5.430;2023-04-06T14:39:43;7.80;99.90
51619;DHT22;38518;53.164;5.430;2023-04-06T14:42:08;7.80;99.90
51619;DHT22;38518;53.164;5.430;2023-04-06T14:44:34;7.80;99.90
51619;DHT22;38518;53.164;5.430;2023-04-06T14:47:02;7.80;99.90
51619;DHT22;38518;53.164;5.430;2023-04-06T14:49:29;7.80;99.90
51619;DHT22;38518;53.164;5.430;2023-04-06T14:51:55;6.70;99.90
51619;DHT22;38518;53.164;5.430;2023-04-06T14:54:21;7.90;99.90
51619;DHT22;38518;53.164;5.430;2023-04-06T14:56:47;7.80;99.90
51619;DHT22;38518;53.164;5.430;2023-04-06T14:59:12;7.80;99.90
51619;DHT22;38518;53.164;5.430;2023-04-06T15:01:38;7.80;99.90
51619;DHT22;38518;53.164;5.430;2023-04-06T15:04:04;7.70;99.90
51619;DHT22;38518;53.164;5.430;2023-04-06T15:06:30;7.70;99.90
51619;DHT22;38518;53.164;5.430;2023-04-06T15:08:57;7.70;99.90
51619;DHT22;38518;53.164;5.430;2023-04-06T15:11:22;7.70;99.90
51619;DHT22;38518;53.164;5.430;2023-04-06T15:13:48;7.70;99.90
51619;DHT22;38518;53.164;5.430;2023-04-06T15:16:14;7.70;99.90
51619;DHT22;38518;53.164;5.430;2023-04-06T15:18:40;7.70;99.90
51619;DHT22;38518;53.164;5.430;2023-04-06T15:21:06;7.50;99.90
51619;DHT22;38518;53.164;5.430;2023-04-06T15:23:33;7.60;99.90
51619;DHT22;38518;53.164;5.430;2023-04-06T15:26:00;7.90;99.90
51619;DHT22;38518;53.164;5.430;2023-04-06T15:28:26;7.50;99.90
51619;DHT22;38518;53.164;5.430;2023-04-06T15:30:54;7.50;99.90
51619;DHT22;38518;53.164;5.430;2023-04-06T15:33:20;7.50;99.90
51619;DHT22;38518;53.164;5.430;2023-04-06T15:35:47;7.50;99.90
51619;DHT22;38518;53.164;5.430;2023-04-06T15:38:13;7.40;99.90
51619;DHT22;38518;53.164;5.430;2023-04-06T15:40:46;7.30;99.90
51619;DHT22;38518;53.164;5.430;2023-04-06T15:43:13;7.30;99.90
51619;DHT22;38518;53.164;5.430;2023-04-06T15:45:39;7.30;99.90
51619;DHT22;38518;53.164;5.430;2023-04-06T15:48:06;7.30;99.90
51619;DHT22;38518;53.164;5.430;2023-04-06T15:50:32;7.30;99.90
51619;DHT22;38518;53.164;5.430;2023-04-06T15:52:58;7.20;99.90
51619;DHT22;38518;53.164;5.430;2023-04-06T15:55:25;7.20;99.90
51619;DHT22;38518;53.164;5.430;2023-04-06T15:57:50;7.20;99.90
51619;DHT22;38518;53.164;5.430;2023-04-06T16:00:16;7.10;99.90
51619;DHT22;38518;53.164;5.430;2023-04-06T16:02:42;7.20;99.90
51619;DHT22;38518;53.164;5.430;2023-04-06T16:05:08;7.10;99.90
51619;DHT22;38518;53.164;5.430;2023-04-06T16:07:34;8.00;99.90
51619;DHT22;38518;53.164;5.430;2023-04-06T16:10:00;7.20;99.90
51619;DHT22;38518;53.164;5.430;2023-04-06T16:12:26;7.10;99.90
51619;DHT22;38518;53.164;5.430;2023-04-06T16:14:52;7.10;99.90
51619;DHT22;38518;53.164;5.430;2023-04-06T16:17:18;7.10;99.90
51619;DHT22;38518;53.164;5.430;2023-04-06T16:19:44;7.10;99.90
51619;DHT22;38518;53.164;5.430;2023-04-06T16:22:10;7.10;99.90
51619;DHT22;38518;53.164;5.430;2023-04-06T16:24:36;7.10;99.90
51619;DHT22;38518;53.164;5.430;2023-04-06T16:27:02;7.00;99.90